createdAt,value
2022-10-03T00:01:49.460Z,99456.56
2022-10-03T00:04:32.242Z,99446.88
2022-10-03T00:07:21.365Z,99449.31
2022-10-03T00:10:25.976Z,99451.66
2022-10-03T00:13:20.368Z,99454.69
2022-10-03T00:16:04.824Z,99448.88
2022-10-03T00:18:42.836Z,99442.97
2022-10-03T00:21:33.988Z,99444.88
2022-10-03T00:24:19.627Z,99446.13
2022-10-03T00:27:18.069Z,99456.66
2022-10-03T00:29:57.200Z,99441.34
2022-10-03T00:32:27.994Z,99464.38
2022-10-03T00:35:08.224Z,99452.03
2022-10-03T00:37:36.099Z,99452.16
2022-10-03T00:40:36.710Z,99445.19
2022-10-03T00:43:08.226Z,99442.75
2022-10-03T00:45:59.331Z,99445.88
2022-10-03T00:48:35.547Z,99450.44
2022-10-03T00:51:32.587Z,99446.25
2022-10-03T00:54:12.048Z,99449.88
2022-10-03T00:56:46.143Z,99445.16
2022-10-03T00:59:47.970Z,99445.94
2022-10-03T01:02:27.151Z,99439.78
2022-10-03T01:05:06.905Z,99446.63
2022-10-03T01:08:00.617Z,99448.88
2022-10-03T01:10:53.792Z,99446.03
2022-10-03T01:13:28.267Z,99443.19
2022-10-03T01:16:15.882Z,99444.31
2022-10-03T01:18:45.929Z,99445.06
2022-10-03T01:21:29.950Z,99446.69
2022-10-03T01:24:09.493Z,99446.97
2022-10-03T01:26:46.510Z,99441.34
2022-10-03T01:29:53.162Z,99442.41
2022-10-03T01:32:32.097Z,99444.25
2022-10-03T01:35:19.768Z,99445.31
2022-10-03T01:38:09.692Z,99448.38
2022-10-03T01:40:43.956Z,99447.91
2022-10-03T01:43:20.746Z,99450.88
2022-10-03T01:46:01.433Z,99449.69
2022-10-03T01:48:50.374Z,99448.75
2022-10-03T01:51:29.940Z,99450.47
2022-10-03T01:54:23.702Z,99444.84
2022-10-03T01:57:29.415Z,99450.06
2022-10-03T02:00:24.543Z,99443.84
2022-10-03T02:02:56.505Z,99445.78
2022-10-03T02:05:42.466Z,99455.38
2022-10-03T02:08:28.800Z,99459.59
2022-10-03T02:11:19.641Z,99459.38
2022-10-03T02:13:50.999Z,99463.00
2022-10-03T02:16:25.542Z,99459.50
2022-10-03T02:19:31.131Z,99457.72
2022-10-03T02:22:01.757Z,99460.88
2022-10-03T02:24:38.336Z,99464.44
2022-10-03T02:27:08.426Z,99462.75
2022-10-03T02:30:02.837Z,99468.69
2022-10-03T02:32:49.010Z,99465.19
2022-10-03T02:35:17.277Z,99473.91
2022-10-03T02:38:06.716Z,99455.31
2022-10-03T02:40:37.809Z,99467.59
2022-10-03T02:43:33.282Z,99462.44
2022-10-03T02:46:03.252Z,99476.91
2022-10-03T02:48:33.868Z,99479.63
2022-10-03T02:51:05.133Z,99470.75
2022-10-03T02:53:50.788Z,99481.22
2022-10-03T02:56:36.571Z,99490.00
2022-10-03T02:59:20.727Z,99478.56
2022-10-03T03:01:56.806Z,99484.00
2022-10-03T03:04:24.154Z,99464.03
2022-10-03T03:10:12.803Z,99463.97
2022-10-03T03:13:02.206Z,99474.47
2022-10-03T03:16:01.246Z,99480.78
2022-10-03T03:18:55.187Z,99493.22
2022-10-03T03:21:49.226Z,99484.28
2022-10-03T03:24:43.713Z,99494.34
2022-10-03T03:27:31.616Z,99486.41
2022-10-03T03:30:33.797Z,99497.78
2022-10-03T03:33:05.396Z,99493.50
2022-10-03T03:35:40.643Z,99506.66
2022-10-03T03:38:28.517Z,99507.06
2022-10-03T03:41:16.191Z,99494.34
2022-10-03T03:44:08.061Z,99494.34
2022-10-03T03:46:45.552Z,99498.00
2022-10-03T03:49:48.868Z,99498.91
2022-10-03T03:52:38.204Z,99487.47
2022-10-03T03:55:26.817Z,99513.25
2022-10-03T03:58:02.565Z,99493.03
2022-10-03T04:00:45.180Z,99501.94
2022-10-03T04:03:19.358Z,99507.19
2022-10-03T04:06:13.590Z,99511.75
2022-10-03T04:08:40.705Z,99503.69
2022-10-03T04:11:30.674Z,99512.41
2022-10-03T04:14:23.557Z,99510.63
2022-10-03T04:17:21.574Z,99505.31
2022-10-03T04:19:57.928Z,99518.72
2022-10-03T04:22:28.655Z,99514.28
2022-10-03T04:25:18.328Z,99512.94
2022-10-03T04:28:00.615Z,99511.75
2022-10-03T04:30:37.787Z,99506.38
2022-10-03T04:33:10.947Z,99514.31
2022-10-03T04:35:40.494Z,99503.03
2022-10-03T04:38:23.908Z,99512.47
2022-10-03T04:40:54.816Z,99502.13
2022-10-03T04:43:42.323Z,99495.88
2022-10-03T04:46:28.828Z,99502.88
2022-10-03T04:49:00.377Z,99508.91
2022-10-03T04:51:40.689Z,99519.09
2022-10-03T04:54:19.602Z,99521.88
2022-10-03T04:57:08.625Z,99518.88
2022-10-03T04:59:48.755Z,99512.44
2022-10-03T05:02:21.707Z,99520.16
2022-10-03T05:05:12.584Z,99517.84
2022-10-03T05:07:49.640Z,99517.63
2022-10-03T05:10:18.661Z,99528.38
2022-10-03T05:12:57.563Z,99520.44
2022-10-03T05:15:53.648Z,99529.22
2022-10-03T05:18:27.186Z,99518.97
2022-10-03T05:21:22.502Z,99531.50
2022-10-03T05:24:03.297Z,99534.31
2022-10-03T05:26:46.856Z,99537.56
2022-10-03T05:29:39.585Z,99526.16
2022-10-03T05:32:11.128Z,99535.84
2022-10-03T05:35:00.645Z,99543.88
2022-10-03T05:37:41.620Z,99548.25
2022-10-03T05:40:10.528Z,99535.69
2022-10-03T05:42:55.901Z,99534.72
2022-10-03T05:45:30.775Z,99536.38
2022-10-03T05:48:11.978Z,99541.53
2022-10-03T05:51:02.016Z,99530.78
2022-10-03T05:53:43.258Z,99542.31
2022-10-03T05:56:41.141Z,99537.78
2022-10-03T05:59:31.867Z,99538.50
2022-10-03T06:02:08.974Z,99539.47
2022-10-03T06:04:55.048Z,99538.63
2022-10-03T06:07:54.587Z,99538.50
2022-10-03T06:10:40.373Z,99533.13
2022-10-03T06:13:33.084Z,99538.13
2022-10-03T06:16:18.197Z,99544.16
2022-10-03T06:18:56.092Z,99536.66
2022-10-03T06:21:25.131Z,99539.69
2022-10-03T06:24:19.532Z,99545.41
2022-10-03T06:27:04.589Z,99541.78
2022-10-03T06:29:55.241Z,99547.81
2022-10-03T06:32:40.367Z,99541.88
2022-10-03T06:35:22.891Z,99555.50
2022-10-03T06:37:49.999Z,99547.19
2022-10-03T06:40:40.566Z,99558.09
2022-10-03T06:43:41.611Z,99553.13
2022-10-03T06:46:12.989Z,99551.91
2022-10-03T06:48:43.046Z,99566.44
2022-10-03T06:51:32.235Z,99569.09
2022-10-03T06:54:19.999Z,99580.19
2022-10-03T06:57:07.161Z,99573.63
2022-10-03T06:59:54.730Z,99572.25
2022-10-03T07:02:41.417Z,99569.63
2022-10-03T07:05:27.318Z,99571.78
2022-10-03T07:08:19.341Z,99568.06
2022-10-03T07:10:52.571Z,99578.72
2022-10-03T07:13:40.148Z,99587.06
2022-10-03T07:16:28.662Z,99587.19
2022-10-03T07:18:59.117Z,99580.31
2022-10-03T07:21:42.035Z,99596.31
2022-10-03T07:24:26.079Z,99600.28
2022-10-03T07:27:34.229Z,99568.88
2022-10-03T07:30:28.277Z,99583.97
2022-10-03T07:32:55.307Z,99600.00
2022-10-03T07:36:03.891Z,99606.47
2022-10-03T07:38:58.465Z,99595.78
2022-10-03T07:41:50.002Z,99604.78
2022-10-03T07:44:43.081Z,99597.88
2022-10-03T07:47:28.802Z,99604.50
2022-10-03T07:50:19.140Z,99600.72
2022-10-03T07:53:01.434Z,99602.66
2022-10-03T07:55:49.829Z,99602.00
2022-10-03T07:58:50.601Z,99603.34
2022-10-03T08:01:36.589Z,99606.50
2022-10-03T08:04:05.172Z,99605.69
2022-10-03T08:06:42.835Z,99611.94
2022-10-03T08:09:36.158Z,99610.22
2022-10-03T08:12:27.851Z,99606.78
2022-10-03T08:15:21.051Z,99610.63
2022-10-03T08:17:54.008Z,99612.00
2022-10-03T08:20:23.772Z,99609.25
2022-10-03T08:22:54.378Z,99611.00
2022-10-03T08:25:29.745Z,99609.81
2022-10-03T08:28:17.273Z,99619.53
2022-10-03T08:31:02.720Z,99613.13
2022-10-03T08:33:30.423Z,99628.25
2022-10-03T08:36:16.474Z,99618.81
2022-10-03T08:39:03.201Z,99602.41
2022-10-03T08:41:32.197Z,99621.34
2022-10-03T08:44:19.685Z,99627.25
2022-10-03T08:47:05.515Z,99618.91
2022-10-03T08:49:55.086Z,99614.28
2022-10-03T08:52:25.473Z,99621.88
2022-10-03T08:54:52.443Z,99606.28
2022-10-03T08:57:22.451Z,99632.19
2022-10-03T09:00:08.669Z,99617.78
2022-10-03T09:03:20.183Z,99613.28
2022-10-03T09:06:01.282Z,99629.19
2022-10-03T09:08:40.404Z,99637.03
2022-10-03T09:11:26.370Z,99642.00
2022-10-03T09:13:57.936Z,99642.78
2022-10-03T09:16:44.100Z,99637.97
2022-10-03T09:19:36.762Z,99606.53
2022-10-03T09:22:12.964Z,99627.66
2022-10-03T09:24:58.580Z,99632.97
2022-10-03T09:27:37.255Z,99618.38
2022-10-03T09:30:17.546Z,99632.78
2022-10-03T09:32:47.791Z,99630.53
2022-10-03T09:35:26.727Z,99625.53
2022-10-03T09:37:56.663Z,99633.69
2022-10-03T09:40:44.515Z,99639.63
2022-10-03T09:43:33.147Z,99612.63
2022-10-03T09:46:21.008Z,99637.69
2022-10-03T09:49:13.365Z,99642.56
2022-10-03T09:52:18.828Z,99613.31
2022-10-03T09:54:55.583Z,99642.97
2022-10-03T09:57:44.234Z,99648.97
2022-10-03T10:00:17.376Z,99655.53
2022-10-03T10:02:52.107Z,99627.03
2022-10-03T10:05:25.477Z,99651.28
2022-10-03T10:08:13.325Z,99640.84
2022-10-03T10:10:59.373Z,99642.81
2022-10-03T10:13:56.074Z,99637.06
2022-10-03T10:16:42.468Z,99635.97
2022-10-03T10:19:38.878Z,99649.06
2022-10-03T10:22:20.445Z,99640.41
2022-10-03T10:24:54.978Z,99627.72
2022-10-03T10:27:50.218Z,99639.94
2022-10-03T10:30:46.530Z,99640.69
2022-10-03T10:33:20.335Z,99643.09
2022-10-03T10:36:07.250Z,99638.44
2022-10-03T10:39:00.666Z,99648.34
2022-10-03T10:41:54.044Z,99651.84
2022-10-03T10:44:34.050Z,99652.19
2022-10-03T10:47:49.756Z,99650.47
2022-10-03T10:50:33.358Z,99641.97
2022-10-03T10:53:20.230Z,99646.25
2022-10-03T10:55:48.285Z,99652.41
2022-10-03T10:58:41.444Z,99658.19
2022-10-03T11:01:27.716Z,99656.78
2022-10-03T11:04:13.642Z,99658.91
2022-10-03T11:06:42.757Z,99645.75
2022-10-03T11:09:35.262Z,99642.88
2022-10-03T11:12:22.028Z,99651.34
2022-10-03T11:14:55.211Z,99646.97
2022-10-03T11:17:54.136Z,99656.63
2022-10-03T11:20:30.201Z,99652.19
2022-10-03T11:23:17.218Z,99652.66
2022-10-03T11:25:51.656Z,99661.56
2022-10-03T11:28:38.537Z,99657.19
2022-10-03T11:31:11.418Z,99664.91
2022-10-03T11:33:50.975Z,99664.59
2022-10-03T11:36:37.594Z,99662.59
2022-10-03T11:39:16.328Z,99660.47
2022-10-03T11:41:46.430Z,99651.34
2022-10-03T11:44:24.485Z,99681.53
2022-10-03T11:46:55.585Z,99685.75
2022-10-03T11:49:32.869Z,99695.03
2022-10-03T11:52:09.180Z,99677.41
2022-10-03T11:54:40.388Z,99684.59
2022-10-03T11:57:18.266Z,99683.66
2022-10-03T11:59:55.034Z,99679.59
2022-10-03T12:02:42.413Z,99686.31
2022-10-03T12:05:21.610Z,99678.31
2022-10-03T12:08:25.901Z,99670.06
2022-10-03T12:11:28.954Z,99669.25
2022-10-03T12:14:11.292Z,99659.13
2022-10-03T12:16:58.586Z,99680.81
2022-10-03T12:19:32.279Z,99691.94
2022-10-03T12:22:20.935Z,99677.56
2022-10-03T12:24:57.169Z,99657.56
2022-10-03T12:27:36.627Z,99669.19
2022-10-03T12:30:15.505Z,99668.88
2022-10-03T12:32:59.809Z,99677.22
2022-10-03T12:35:45.133Z,99667.28
2022-10-03T12:38:12.109Z,99671.53
2022-10-03T12:41:02.632Z,99672.81
2022-10-03T12:43:48.066Z,99672.19
2022-10-03T12:46:32.256Z,99672.69
2022-10-03T12:49:28.789Z,99656.69
2022-10-03T12:52:24.024Z,99694.56
2022-10-03T12:55:06.075Z,99675.84
2022-10-03T12:58:02.370Z,99685.91
2022-10-03T13:00:50.053Z,99693.63
2022-10-03T13:03:21.175Z,99720.38
2022-10-03T13:05:55.768Z,99693.50
2022-10-03T13:08:41.890Z,99697.34
2022-10-03T13:11:33.318Z,99709.34
2022-10-03T13:14:28.516Z,99706.28
2022-10-03T13:17:02.608Z,99702.69
2022-10-03T13:19:52.351Z,99706.38
2022-10-03T13:22:37.992Z,99722.06
2022-10-03T13:25:14.202Z,99721.53
2022-10-03T13:27:52.523Z,99717.63
2022-10-03T13:30:37.351Z,99716.78
2022-10-03T13:33:15.540Z,99706.44
2022-10-03T13:36:10.067Z,99715.34
2022-10-03T13:39:15.027Z,99727.06
2022-10-03T13:42:02.021Z,99709.25
2022-10-03T13:44:59.781Z,99712.22
2022-10-03T13:47:45.641Z,99716.13
2022-10-03T13:50:17.035Z,99704.50
2022-10-03T13:53:03.747Z,99708.31
2022-10-03T13:55:57.502Z,99699.53
2022-10-03T13:58:30.080Z,99711.38
2022-10-03T14:01:00.085Z,99707.84
2022-10-03T14:03:31.518Z,99719.88
2022-10-03T14:06:25.799Z,99716.66
2022-10-03T14:09:07.377Z,99717.16
2022-10-03T14:11:54.005Z,99734.53
2022-10-03T14:14:34.991Z,99718.09
2022-10-03T14:17:04.929Z,99716.00
2022-10-03T14:19:37.393Z,99721.41
2022-10-03T14:22:04.738Z,99730.84
2022-10-03T14:24:56.192Z,99724.06
2022-10-03T14:27:42.753Z,99712.53
2022-10-03T14:30:15.800Z,99709.75
2022-10-03T14:33:07.578Z,99733.31
2022-10-03T14:35:55.431Z,99726.13
2022-10-03T14:38:48.428Z,99724.06
2022-10-03T14:41:26.486Z,99718.28
2022-10-03T14:44:12.987Z,99730.09
2022-10-03T14:46:44.899Z,99723.72
2022-10-03T14:49:47.139Z,99734.06
2022-10-03T14:52:22.643Z,99734.06
2022-10-03T14:54:58.275Z,99741.31
2022-10-03T14:57:34.862Z,99735.72
2022-10-03T15:00:32.865Z,99732.78
2022-10-03T15:03:12.989Z,99739.53
2022-10-03T15:05:51.832Z,99729.50
2022-10-03T15:08:20.933Z,99738.31
2022-10-03T15:10:51.328Z,99724.09
2022-10-03T15:13:23.955Z,99737.56
2022-10-03T15:15:55.731Z,99726.53
2022-10-03T15:18:25.673Z,99755.66
2022-10-03T15:20:55.112Z,99749.19
2022-10-03T15:23:44.666Z,99749.03
2022-10-03T15:26:20.184Z,99761.31
2022-10-03T15:28:51.842Z,99773.13
2022-10-03T15:31:39.980Z,99762.09
2022-10-03T15:34:15.368Z,99758.56
2022-10-03T15:36:47.416Z,99755.34
2022-10-03T15:39:20.472Z,99752.56
2022-10-03T15:41:52.785Z,99749.75
2022-10-03T15:44:39.732Z,99758.56
2022-10-03T15:47:15.595Z,99762.22
2022-10-03T15:49:49.555Z,99754.63
2022-10-03T15:52:24.287Z,99757.50
2022-10-03T15:55:03.113Z,99768.41
2022-10-03T15:58:00.058Z,99754.94
2022-10-03T16:00:32.304Z,99746.88
2022-10-03T16:03:09.106Z,99768.28
2022-10-03T16:06:01.289Z,99756.72
2022-10-03T16:08:40.529Z,99764.53
2022-10-03T16:11:09.445Z,99756.78
2022-10-03T16:13:49.552Z,99758.75
2022-10-03T16:16:19.820Z,99770.78
2022-10-03T16:18:54.226Z,99765.53
2022-10-03T16:21:42.673Z,99771.63
2022-10-03T16:24:18.840Z,99766.53
2022-10-03T16:27:08.275Z,99761.25
2022-10-03T16:29:38.579Z,99775.53
2022-10-03T16:32:10.603Z,99766.47
2022-10-03T16:34:42.169Z,99758.13
2022-10-03T16:37:16.800Z,99771.38
2022-10-03T16:39:51.043Z,99763.94
2022-10-03T16:42:26.272Z,99767.78
2022-10-03T16:44:55.764Z,99767.97
2022-10-03T16:47:43.375Z,99760.78
2022-10-03T16:50:43.991Z,99767.13
2022-10-03T16:53:13.860Z,99773.41
2022-10-03T16:55:57.867Z,99764.91
2022-10-03T16:58:40.421Z,99771.47
2022-10-03T17:01:34.644Z,99773.63
2022-10-03T17:04:17.688Z,99783.44
2022-10-03T17:06:47.701Z,99784.50
2022-10-03T17:09:39.630Z,99801.16
2022-10-03T17:12:28.177Z,99791.44
2022-10-03T17:15:07.719Z,99793.53
2022-10-03T17:17:49.350Z,99801.69
2022-10-03T17:20:38.887Z,99799.09
2022-10-03T17:23:15.118Z,99798.66
2022-10-03T17:26:21.112Z,99800.56
2022-10-03T17:28:52.439Z,99804.19
2022-10-03T17:31:40.620Z,99790.91
2022-10-03T17:34:17.246Z,99798.03
2022-10-03T17:36:49.572Z,99804.28
2022-10-03T17:39:19.488Z,99795.50
2022-10-03T17:42:13.302Z,99790.16
2022-10-03T17:45:07.278Z,99799.31
2022-10-03T17:47:36.199Z,99793.28
2022-10-03T17:50:38.413Z,99803.25
2022-10-03T17:53:27.905Z,99810.88
2022-10-03T17:56:01.871Z,99788.19
2022-10-03T17:58:33.869Z,99795.38
2022-10-03T18:01:17.858Z,99799.75
2022-10-03T18:04:11.137Z,99796.38
2022-10-03T18:07:15.410Z,99800.59
2022-10-03T18:09:50.741Z,99808.50
2022-10-03T18:12:33.753Z,99802.28
2022-10-03T18:15:38.624Z,99807.69
2022-10-03T18:18:30.171Z,99816.16
2022-10-03T18:21:17.541Z,99822.84
2022-10-03T18:24:01.913Z,99812.66
2022-10-03T18:26:51.057Z,99814.38
2022-10-03T18:29:46.710Z,99818.91
2022-10-03T18:32:22.919Z,99811.00
2022-10-03T18:35:00.028Z,99813.66
2022-10-03T18:37:45.252Z,99812.91
2022-10-03T18:40:30.362Z,99807.63
2022-10-03T18:43:34.144Z,99804.38
2022-10-03T18:46:14.779Z,99801.78
2022-10-03T18:49:09.117Z,99810.13
2022-10-03T18:52:07.161Z,99817.19
2022-10-03T18:54:56.074Z,99805.25
2022-10-03T18:57:27.513Z,99815.25
2022-10-03T19:00:08.434Z,99814.13
2022-10-03T19:02:52.224Z,99819.81
2022-10-03T19:05:49.338Z,99822.56
2022-10-03T19:08:22.161Z,99827.75
2022-10-03T19:10:57.895Z,99825.22
2022-10-03T19:13:39.018Z,99822.75
2022-10-03T19:16:19.929Z,99820.69
2022-10-03T19:19:12.698Z,99827.28
2022-10-03T19:21:49.967Z,99836.00
2022-10-03T19:24:57.923Z,99825.88
2022-10-03T19:28:00.039Z,99809.97
2022-10-03T19:30:31.000Z,99823.84
2022-10-03T19:33:09.642Z,99821.50
2022-10-03T19:35:43.468Z,99828.19
2022-10-03T19:38:36.864Z,99806.38
2022-10-03T19:41:30.104Z,99827.81
2022-10-03T19:44:02.144Z,99824.66
2022-10-03T19:46:32.792Z,99818.22
2022-10-03T19:52:27.354Z,99833.72
2022-10-03T19:55:00.633Z,99830.88
2022-10-03T19:57:29.808Z,99820.03
2022-10-03T20:00:01.464Z,99824.22
2022-10-03T20:03:18.377Z,99827.41
2022-10-03T20:06:14.343Z,99832.56
2022-10-03T20:09:25.352Z,99830.75
2022-10-03T20:12:20.883Z,99826.22
2022-10-03T20:15:26.075Z,99827.28
2022-10-03T20:17:59.688Z,99826.34
2022-10-03T20:20:57.472Z,99822.09
2022-10-03T20:23:27.330Z,99823.97
2022-10-03T20:26:00.623Z,99826.53
2022-10-03T20:28:48.304Z,99828.03
2022-10-03T20:31:24.422Z,99818.91
2022-10-03T20:33:53.343Z,99820.72
2022-10-03T20:36:28.480Z,99811.16
2022-10-03T20:38:55.334Z,99809.72
2022-10-03T20:41:36.755Z,99807.81
2022-10-03T20:44:08.752Z,99815.94
2022-10-03T20:47:02.473Z,99799.53
2022-10-03T20:49:54.096Z,99805.03
2022-10-03T20:52:29.053Z,99807.59
2022-10-03T20:55:00.889Z,99817.53
2022-10-03T20:57:49.534Z,99817.06
2022-10-03T21:04:03.947Z,99827.19
2022-10-03T21:06:33.434Z,99826.16
2022-10-03T21:09:02.885Z,99823.38
2022-10-03T21:11:40.993Z,99822.88
2022-10-03T21:14:26.046Z,99822.75
2022-10-03T21:16:54.644Z,99817.84
2022-10-03T21:19:59.917Z,99824.34
2022-10-03T21:22:36.572Z,99824.47
2022-10-03T21:25:21.892Z,99831.06
2022-10-03T21:28:24.902Z,99827.59
2022-10-03T21:31:30.031Z,99829.16
2022-10-03T21:34:00.385Z,99831.97
2022-10-03T21:36:41.548Z,99821.38
2022-10-03T21:39:30.173Z,99817.94
2022-10-03T21:42:22.793Z,99826.50
2022-10-03T21:48:27.346Z,99820.59
2022-10-03T21:51:31.243Z,99806.38
2022-10-03T21:54:38.570Z,99814.56
2022-10-03T21:57:26.915Z,99822.63
2022-10-03T22:03:45.687Z,99822.25
2022-10-03T22:06:42.291Z,99822.38
2022-10-03T22:09:33.055Z,99824.22
2022-10-03T22:12:07.112Z,99825.03
2022-10-03T22:15:04.852Z,99822.31
2022-10-03T22:18:08.601Z,99813.63
2022-10-03T22:20:57.291Z,99822.25
2022-10-03T22:23:47.895Z,99809.19
2022-10-03T22:26:50.307Z,99822.09
2022-10-03T22:32:44.952Z,99806.50
2022-10-03T22:35:22.174Z,99805.63
2022-10-03T22:37:57.646Z,99805.97
2022-10-03T22:40:41.205Z,99796.28
2022-10-03T22:43:08.844Z,99807.88
2022-10-03T22:45:41.686Z,99807.00
2022-10-03T22:48:31.571Z,99803.50
2022-10-03T22:54:20.172Z,99805.75
2022-10-03T22:56:53.047Z,99807.50
2022-10-03T22:59:35.162Z,99798.56
2022-10-03T23:02:16.404Z,99793.59
2022-10-03T23:05:24.430Z,99792.69
2022-10-03T23:08:20.882Z,99801.72
2022-10-03T23:11:16.793Z,99806.59
2022-10-03T23:13:54.768Z,99801.94
2022-10-03T23:16:34.932Z,99806.50
2022-10-03T23:19:33.635Z,99805.47
2022-10-03T23:22:18.595Z,99811.56
2022-10-03T23:25:26.492Z,99801.63
2022-10-03T23:28:15.809Z,99807.75
2022-10-03T23:30:48.703Z,99804.28
2022-10-03T23:33:36.692Z,99808.44
2022-10-03T23:36:04.862Z,99807.66
2022-10-03T23:38:35.297Z,99807.00
2022-10-03T23:44:27.049Z,99794.22
2022-10-03T23:46:54.898Z,99805.63
2022-10-03T23:49:23.778Z,99808.22
2022-10-03T23:51:51.671Z,99810.84
2022-10-03T23:54:23.555Z,99810.19
2022-10-03T23:56:50.672Z,99799.84
2022-10-03T23:59:36.832Z,99802.50
